CES238 ZSAM-ZSSS
Flight info
| Callsign | CES238 |
|---|---|
| Flight time | 1h 12m |
| Altitude | 29100 |
| Route | DOVPU5U DOVPU W643 FOC W644 IDMUV/K0819S0840 W644 ANLUD/K0804S0810 B221 SHZ G204 JTN |
| Aircraft | A321/M-SDE3FGHIRWY/LB1 |
Departure
| Time | 2026-05-06 13:09 |
|---|---|
| Airport | Xiamen Gaoqi International Airport (ZSAM) |
Arrival
| Time | 2026-05-06 14:21 |
|---|---|
| Airport | Shanghai Hongqiao International Airport (ZSSS) |
| Time | Latitude | Longitude | Altitude | Speed | Heading |
|---|---|---|---|---|---|
| 2026-05-06 12:56 | 24.54731 | 118.13858 | 45 ft | 0 kts | 141° |
| 2026-05-06 13:01 | 24.54730 | 118.13860 | 47 ft | 2 kts | 141° |
| 2026-05-06 13:02 | 24.54700 | 118.13854 | 46 ft | 8 kts | 207° |
| 2026-05-06 13:02 | 24.54703 | 118.13798 | 48 ft | 8 kts | 321° |
| 2026-05-06 13:02 | 24.54745 | 118.13763 | 48 ft | 7 kts | 323° |
| 2026-05-06 13:02 | 24.54780 | 118.13728 | 45 ft | 8 kts | 303° |
| 2026-05-06 13:03 | 24.54759 | 118.13669 | 48 ft | 11 kts | 227° |
| 2026-05-06 13:03 | 24.54703 | 118.13591 | 46 ft | 15 kts | 232° |
| 2026-05-06 13:03 | 24.54631 | 118.13489 | 47 ft | 19 kts | 232° |
| 2026-05-06 13:03 | 24.54542 | 118.13362 | 48 ft | 23 kts | 232° |
| 2026-05-06 13:04 | 24.54441 | 118.13217 | 50 ft | 23 kts | 234° |
| 2026-05-06 13:04 | 24.54455 | 118.13124 | 52 ft | 5 kts | 270° |
| 2026-05-06 13:04 | 24.54425 | 118.13073 | 53 ft | 12 kts | 232° |
| 2026-05-06 13:04 | 24.54362 | 118.12985 | 52 ft | 16 kts | 232° |
| 2026-05-06 13:05 | 24.54295 | 118.12891 | 52 ft | 15 kts | 232° |
| 2026-05-06 13:05 | 24.54236 | 118.12809 | 55 ft | 13 kts | 232° |
| 2026-05-06 13:05 | 24.54175 | 118.12721 | 53 ft | 18 kts | 233° |
| 2026-05-06 13:05 | 24.54084 | 118.12597 | 51 ft | 22 kts | 232° |
| 2026-05-06 13:06 | 24.53989 | 118.12464 | 51 ft | 21 kts | 232° |
| 2026-05-06 13:06 | 24.53901 | 118.12341 | 54 ft | 20 kts | 231° |
| 2026-05-06 13:06 | 24.53821 | 118.12229 | 57 ft | 18 kts | 232° |
| 2026-05-06 13:06 | 24.53748 | 118.12127 | 54 ft | 16 kts | 232° |
| 2026-05-06 13:07 | 24.53683 | 118.12036 | 59 ft | 14 kts | 232° |
| 2026-05-06 13:07 | 24.53618 | 118.11944 | 58 ft | 16 kts | 232° |
| 2026-05-06 13:07 | 24.53543 | 118.11838 | 58 ft | 18 kts | 232° |
| 2026-05-06 13:07 | 24.53469 | 118.11735 | 59 ft | 16 kts | 232° |
| 2026-05-06 13:08 | 24.53404 | 118.11641 | 62 ft | 14 kts | 243° |
| 2026-05-06 13:08 | 24.53414 | 118.11527 | 58 ft | 16 kts | 289° |
| 2026-05-06 13:08 | 24.53495 | 118.11487 | 61 ft | 14 kts | 29° |
| 2026-05-06 13:08 | 24.53559 | 118.11573 | 56 ft | 19 kts | 52° |
| 2026-05-06 13:09 | 24.53785 | 118.11893 | 58 ft | 86 kts | 52° |
| 2026-05-06 13:09 | 24.54274 | 118.12577 | 49 ft | 139 kts | 52° |
| 2026-05-06 13:09 | 24.54948 | 118.13517 | 115 ft | 172 kts | 52° |
| 2026-05-06 13:09 | 24.55659 | 118.14517 | 785 ft | 160 kts | 53° |
| 2026-05-06 13:10 | 24.56348 | 118.15476 | 1311 ft | 162 kts | 52° |
| 2026-05-06 13:10 | 24.57083 | 118.16505 | 1558 ft | 181 kts | 52° |
| 2026-05-06 13:10 | 24.57909 | 118.17667 | 1724 ft | 205 kts | 52° |
| 2026-05-06 13:10 | 24.58839 | 118.18970 | 1919 ft | 229 kts | 52° |
| 2026-05-06 13:11 | 24.59872 | 118.20416 | 2202 ft | 251 kts | 52° |
| 2026-05-06 13:11 | 24.60971 | 118.21952 | 2812 ft | 259 kts | 51° |
| 2026-05-06 13:11 | 24.62355 | 118.23240 | 3439 ft | 266 kts | 31° |
| 2026-05-06 13:11 | 24.63969 | 118.24284 | 4109 ft | 271 kts | 30° |
| 2026-05-06 13:12 | 24.65615 | 118.25336 | 4810 ft | 276 kts | 29° |
| 2026-05-06 13:12 | 24.67287 | 118.26404 | 5474 ft | 280 kts | 29° |
| 2026-05-06 13:12 | 24.68959 | 118.27474 | 6145 ft | 283 kts | 29° |
| 2026-05-06 13:12 | 24.70674 | 118.28575 | 6790 ft | 287 kts | 29° |
| 2026-05-06 13:13 | 24.72407 | 118.29693 | 7414 ft | 291 kts | 29° |
| 2026-05-06 13:13 | 24.74162 | 118.30827 | 8017 ft | 295 kts | 29° |
| 2026-05-06 13:13 | 24.75938 | 118.31977 | 8598 ft | 298 kts | 29° |
| 2026-05-06 13:13 | 24.77739 | 118.33143 | 9198 ft | 302 kts | 29° |
| 2026-05-06 13:14 | 24.78963 | 118.33936 | 9589 ft | 304 kts | 28° |
| 2026-05-06 13:14 | 24.81402 | 118.35517 | 10251 ft | 312 kts | 28° |
| 2026-05-06 13:14 | 24.83330 | 118.36761 | 10367 ft | 330 kts | 28° |
| 2026-05-06 13:14 | 24.85364 | 118.38075 | 10482 ft | 348 kts | 28° |
| 2026-05-06 13:15 | 24.86799 | 118.39003 | 10568 ft | 359 kts | 28° |
| 2026-05-06 13:15 | 24.89001 | 118.40426 | 10711 ft | 374 kts | 28° |
| 2026-05-06 13:15 | 24.91235 | 118.41871 | 11087 ft | 380 kts | 28° |
| 2026-05-06 13:15 | 24.93401 | 118.43571 | 11554 ft | 386 kts | 39° |
| 2026-05-06 13:16 | 24.95933 | 118.46418 | 12204 ft | 391 kts | 45° |
| 2026-05-06 13:16 | 24.97173 | 118.47858 | 12530 ft | 392 kts | 45° |
| 2026-05-06 13:16 | 24.99069 | 118.50048 | 13011 ft | 395 kts | 45° |
| 2026-05-06 13:16 | 25.00979 | 118.52240 | 13495 ft | 398 kts | 44° |
| 2026-05-06 13:17 | 25.02904 | 118.54443 | 13937 ft | 401 kts | 44° |
| 2026-05-06 13:17 | 25.04848 | 118.56668 | 14328 ft | 403 kts | 45° |
| 2026-05-06 13:17 | 25.06797 | 118.58904 | 14713 ft | 406 kts | 45° |
| 2026-05-06 13:17 | 25.08722 | 118.61197 | 15090 ft | 409 kts | 50° |
| 2026-05-06 13:18 | 25.10317 | 118.63814 | 15482 ft | 413 kts | 60° |
| 2026-05-06 13:18 | 25.11666 | 118.66628 | 15844 ft | 416 kts | 62° |
| 2026-05-06 13:18 | 25.13024 | 118.69457 | 16258 ft | 418 kts | 62° |
| 2026-05-06 13:18 | 25.14393 | 118.72292 | 16636 ft | 420 kts | 62° |
| 2026-05-06 13:19 | 25.15773 | 118.75143 | 17017 ft | 422 kts | 62° |
| 2026-05-06 13:19 | 25.17162 | 118.78008 | 17377 ft | 425 kts | 62° |
| 2026-05-06 13:19 | 25.18559 | 118.80889 | 17727 ft | 427 kts | 62° |
| 2026-05-06 13:19 | 25.19963 | 118.83790 | 18085 ft | 430 kts | 62° |
| 2026-05-06 13:20 | 25.21371 | 118.86710 | 18416 ft | 432 kts | 62° |
| 2026-05-06 13:20 | 25.22783 | 118.89649 | 18717 ft | 434 kts | 62° |
| 2026-05-06 13:20 | 25.24201 | 118.92603 | 19009 ft | 437 kts | 62° |
| 2026-05-06 13:20 | 25.25649 | 118.95568 | 19299 ft | 439 kts | 59° |
| 2026-05-06 13:21 | 25.27415 | 118.98326 | 19594 ft | 441 kts | 49° |
| 2026-05-06 13:21 | 25.29505 | 119.00810 | 19869 ft | 443 kts | 45° |
| 2026-05-06 13:21 | 25.31612 | 119.03247 | 20144 ft | 445 kts | 45° |
| 2026-05-06 13:21 | 25.33757 | 119.05730 | 20435 ft | 448 kts | 45° |
| 2026-05-06 13:22 | 25.35909 | 119.08226 | 20712 ft | 450 kts | 45° |
| 2026-05-06 13:22 | 25.38074 | 119.10744 | 20993 ft | 452 kts | 46° |
| 2026-05-06 13:22 | 25.40243 | 119.13275 | 21269 ft | 455 kts | 46° |
| 2026-05-06 13:22 | 25.42424 | 119.15823 | 21556 ft | 457 kts | 46° |
| 2026-05-06 13:23 | 25.44615 | 119.18384 | 21838 ft | 460 kts | 46° |
| 2026-05-06 13:23 | 25.46822 | 119.20961 | 22116 ft | 462 kts | 46° |
| 2026-05-06 13:23 | 25.49037 | 119.23546 | 22387 ft | 465 kts | 46° |
| 2026-05-06 13:23 | 25.51050 | 119.25896 | 22649 ft | 467 kts | 46° |
| 2026-05-06 13:24 | 25.53290 | 119.28514 | 22928 ft | 469 kts | 46° |
| 2026-05-06 13:24 | 25.55544 | 119.31154 | 23196 ft | 472 kts | 46° |
| 2026-05-06 13:24 | 25.57797 | 119.33805 | 23455 ft | 474 kts | 46° |
| 2026-05-06 13:24 | 25.60060 | 119.36476 | 23702 ft | 477 kts | 46° |
| 2026-05-06 13:25 | 25.62332 | 119.39160 | 23934 ft | 478 kts | 46° |
| 2026-05-06 13:25 | 25.64609 | 119.41858 | 24175 ft | 480 kts | 46° |
| 2026-05-06 13:25 | 25.66863 | 119.44531 | 24417 ft | 481 kts | 46° |
| 2026-05-06 13:25 | 25.69153 | 119.47251 | 24668 ft | 483 kts | 46° |
| 2026-05-06 13:26 | 25.71447 | 119.49977 | 24910 ft | 484 kts | 46° |
| 2026-05-06 13:26 | 25.73748 | 119.52712 | 25167 ft | 485 kts | 46° |
| 2026-05-06 13:26 | 25.76089 | 119.55412 | 25413 ft | 486 kts | 41° |
| 2026-05-06 13:26 | 25.78716 | 119.57756 | 25647 ft | 484 kts | 32° |
| 2026-05-06 13:27 | 25.81623 | 119.59630 | 25882 ft | 483 kts | 24° |
| 2026-05-06 13:27 | 25.84621 | 119.61320 | 26122 ft | 484 kts | 24° |
| 2026-05-06 13:27 | 25.87624 | 119.63027 | 26355 ft | 485 kts | 24° |
| 2026-05-06 13:27 | 25.90633 | 119.64746 | 26580 ft | 487 kts | 24° |
| 2026-05-06 13:28 | 25.93649 | 119.66470 | 26816 ft | 488 kts | 24° |
| 2026-05-06 13:28 | 25.96674 | 119.68182 | 27065 ft | 489 kts | 24° |
| 2026-05-06 13:28 | 25.99714 | 119.69890 | 27304 ft | 490 kts | 24° |
| 2026-05-06 13:28 | 26.02764 | 119.71596 | 27544 ft | 491 kts | 23° |
| 2026-05-06 13:29 | 26.05904 | 119.73074 | 27762 ft | 489 kts | 14° |
| 2026-05-06 13:29 | 26.09185 | 119.74000 | 27994 ft | 485 kts | 6° |
| 2026-05-06 13:29 | 26.12532 | 119.74366 | 28220 ft | 482 kts | 357° |
| 2026-05-06 13:29 | 26.15868 | 119.74233 | 28448 ft | 480 kts | 353° |
| 2026-05-06 13:30 | 26.19197 | 119.74020 | 28767 ft | 478 kts | 353° |
| 2026-05-06 13:30 | 26.22518 | 119.73807 | 29059 ft | 477 kts | 353° |
| 2026-05-06 13:30 | 26.25812 | 119.73598 | 29130 ft | 469 kts | 353° |
| 2026-05-06 13:31 | 26.32248 | 119.73194 | 29134 ft | 461 kts | 353° |
| 2026-05-06 13:31 | 26.38638 | 119.72794 | 29135 ft | 459 kts | 353° |
| 2026-05-06 13:32 | 26.45042 | 119.72875 | 29135 ft | 466 kts | 6° |
| 2026-05-06 13:32 | 26.51203 | 119.75296 | 29133 ft | 477 kts | 26° |
| 2026-05-06 13:33 | 26.56849 | 119.79251 | 29136 ft | 479 kts | 28° |
| 2026-05-06 13:33 | 26.62459 | 119.83193 | 29128 ft | 479 kts | 28° |
| 2026-05-06 13:34 | 26.68102 | 119.87155 | 29132 ft | 479 kts | 28° |
| 2026-05-06 13:34 | 26.73743 | 119.91131 | 29138 ft | 479 kts | 28° |
| 2026-05-06 13:35 | 26.79380 | 119.95111 | 29134 ft | 479 kts | 28° |
| 2026-05-06 13:35 | 26.85022 | 119.99093 | 29140 ft | 479 kts | 28° |
| 2026-05-06 13:36 | 26.90663 | 120.03076 | 29138 ft | 479 kts | 28° |
| 2026-05-06 13:36 | 26.96299 | 120.07070 | 29145 ft | 479 kts | 28° |
| 2026-05-06 13:37 | 27.01935 | 120.11077 | 29146 ft | 480 kts | 28° |
| 2026-05-06 13:37 | 27.07577 | 120.15078 | 29145 ft | 480 kts | 28° |
| 2026-05-06 13:38 | 27.13215 | 120.19087 | 29142 ft | 480 kts | 28° |
| 2026-05-06 13:38 | 27.18863 | 120.23096 | 29151 ft | 480 kts | 28° |
| 2026-05-06 13:39 | 27.24524 | 120.27079 | 29154 ft | 480 kts | 28° |
| 2026-05-06 13:39 | 27.30187 | 120.31068 | 29143 ft | 480 kts | 28° |
| 2026-05-06 13:40 | 27.35840 | 120.35074 | 29147 ft | 480 kts | 28° |
| 2026-05-06 13:40 | 27.41489 | 120.39082 | 29153 ft | 480 kts | 28° |
| 2026-05-06 13:41 | 27.47140 | 120.43101 | 29147 ft | 481 kts | 28° |
| 2026-05-06 13:41 | 27.52792 | 120.47130 | 29147 ft | 480 kts | 28° |
| 2026-05-06 13:42 | 27.58403 | 120.51132 | 29146 ft | 480 kts | 28° |
| 2026-05-06 13:42 | 27.64055 | 120.55168 | 29147 ft | 481 kts | 28° |
| 2026-05-06 13:43 | 27.69701 | 120.59204 | 29146 ft | 481 kts | 28° |
| 2026-05-06 13:43 | 27.75634 | 120.62476 | 29147 ft | 471 kts | 12° |
| 2026-05-06 13:44 | 27.82006 | 120.63644 | 29139 ft | 461 kts | 359° |
| 2026-05-06 13:44 | 27.88409 | 120.64233 | 29143 ft | 462 kts | 360° |
| 2026-05-06 13:45 | 27.94820 | 120.64838 | 29140 ft | 462 kts | 360° |
| 2026-05-06 13:45 | 28.04447 | 120.65743 | 29141 ft | 463 kts | 360° |
| 2026-05-06 13:46 | 28.10861 | 120.66368 | 29151 ft | 463 kts | 360° |
| 2026-05-06 13:46 | 28.17286 | 120.67005 | 29151 ft | 464 kts | 360° |
| 2026-05-06 13:47 | 28.23717 | 120.67637 | 28976 ft | 464 kts | 360° |
| 2026-05-06 13:47 | 28.26938 | 120.67954 | 28721 ft | 465 kts | 0° |
| 2026-05-06 13:47 | 28.30162 | 120.68272 | 28458 ft | 465 kts | 0° |
| 2026-05-06 13:48 | 28.33392 | 120.68588 | 28211 ft | 466 kts | 0° |
| 2026-05-06 13:48 | 28.36624 | 120.68903 | 27960 ft | 467 kts | 0° |
| 2026-05-06 13:48 | 28.39866 | 120.69222 | 27709 ft | 468 kts | 0° |
| 2026-05-06 13:48 | 28.43109 | 120.69542 | 27461 ft | 468 kts | 0° |
| 2026-05-06 13:49 | 28.46316 | 120.69861 | 27223 ft | 469 kts | 0° |
| 2026-05-06 13:49 | 28.49611 | 120.70189 | 26975 ft | 469 kts | 0° |
| 2026-05-06 13:49 | 28.52815 | 120.70514 | 26729 ft | 468 kts | 1° |
| 2026-05-06 13:49 | 28.56054 | 120.70845 | 26490 ft | 467 kts | 1° |
| 2026-05-06 13:50 | 28.59283 | 120.71174 | 26263 ft | 465 kts | 1° |
| 2026-05-06 13:50 | 28.62504 | 120.71501 | 26015 ft | 463 kts | 0° |
| 2026-05-06 13:50 | 28.65706 | 120.71823 | 25782 ft | 462 kts | 0° |
| 2026-05-06 13:50 | 28.68906 | 120.72141 | 25548 ft | 460 kts | 0° |
| 2026-05-06 13:51 | 28.72092 | 120.72465 | 25314 ft | 460 kts | 1° |
| 2026-05-06 13:51 | 28.75273 | 120.72807 | 25081 ft | 458 kts | 1° |
| 2026-05-06 13:51 | 28.78438 | 120.73157 | 24858 ft | 457 kts | 1° |
| 2026-05-06 13:51 | 28.81601 | 120.73515 | 24666 ft | 456 kts | 1° |
| 2026-05-06 13:52 | 28.84751 | 120.73873 | 24622 ft | 455 kts | 1° |
| 2026-05-06 13:52 | 28.87903 | 120.74224 | 24639 ft | 455 kts | 1° |
| 2026-05-06 13:52 | 28.91056 | 120.74558 | 24458 ft | 454 kts | 1° |
| 2026-05-06 13:52 | 28.94198 | 120.74879 | 24229 ft | 452 kts | 1° |
| 2026-05-06 13:53 | 28.97333 | 120.75195 | 24008 ft | 451 kts | 1° |
| 2026-05-06 13:53 | 29.00457 | 120.75511 | 23790 ft | 450 kts | 1° |
| 2026-05-06 13:53 | 29.03575 | 120.75828 | 23555 ft | 449 kts | 1° |
| 2026-05-06 13:53 | 29.06674 | 120.76144 | 23306 ft | 447 kts | 1° |
| 2026-05-06 13:54 | 29.09769 | 120.76462 | 23044 ft | 445 kts | 1° |
| 2026-05-06 13:54 | 29.12869 | 120.76780 | 22793 ft | 454 kts | 1° |
| 2026-05-06 13:54 | 29.16075 | 120.77103 | 22537 ft | 470 kts | 1° |
| 2026-05-06 13:54 | 29.19378 | 120.77436 | 22288 ft | 481 kts | 1° |
| 2026-05-06 13:55 | 29.22722 | 120.77779 | 22026 ft | 484 kts | 2° |
| 2026-05-06 13:55 | 29.26078 | 120.78126 | 21777 ft | 483 kts | 2° |
| 2026-05-06 13:55 | 29.29419 | 120.78476 | 21529 ft | 482 kts | 2° |
| 2026-05-06 13:55 | 29.32753 | 120.78826 | 21289 ft | 481 kts | 2° |
| 2026-05-06 13:56 | 29.36041 | 120.79172 | 21049 ft | 479 kts | 2° |
| 2026-05-06 13:56 | 29.39356 | 120.79521 | 20809 ft | 478 kts | 2° |
| 2026-05-06 13:56 | 29.42663 | 120.79867 | 20561 ft | 476 kts | 2° |
| 2026-05-06 13:56 | 29.45957 | 120.80210 | 20325 ft | 474 kts | 2° |
| 2026-05-06 13:57 | 29.49236 | 120.80550 | 20090 ft | 473 kts | 2° |
| 2026-05-06 13:57 | 29.52518 | 120.80888 | 19848 ft | 472 kts | 2° |
| 2026-05-06 13:57 | 29.55785 | 120.81227 | 19623 ft | 470 kts | 2° |
| 2026-05-06 13:57 | 29.59020 | 120.81833 | 19384 ft | 473 kts | 11° |
| 2026-05-06 13:58 | 29.62140 | 120.83050 | 19155 ft | 475 kts | 21° |
| 2026-05-06 13:58 | 29.65084 | 120.84774 | 18932 ft | 475 kts | 26° |
| 2026-05-06 13:58 | 29.67991 | 120.86564 | 18707 ft | 473 kts | 26° |
| 2026-05-06 13:58 | 29.70895 | 120.88348 | 18475 ft | 472 kts | 26° |
| 2026-05-06 13:59 | 29.73787 | 120.90124 | 18253 ft | 471 kts | 26° |
| 2026-05-06 13:59 | 29.76672 | 120.91894 | 18002 ft | 469 kts | 26° |
| 2026-05-06 13:59 | 29.79543 | 120.93658 | 17744 ft | 467 kts | 25° |
| 2026-05-06 13:59 | 29.82401 | 120.95416 | 17498 ft | 465 kts | 26° |
| 2026-05-06 14:00 | 29.85245 | 120.97162 | 17238 ft | 462 kts | 26° |
| 2026-05-06 14:00 | 29.88079 | 120.98904 | 16989 ft | 460 kts | 26° |
| 2026-05-06 14:00 | 29.90895 | 121.00641 | 16739 ft | 458 kts | 26° |
| 2026-05-06 14:00 | 29.93702 | 121.02377 | 16483 ft | 457 kts | 26° |
| 2026-05-06 14:01 | 29.96496 | 121.04103 | 16241 ft | 454 kts | 26° |
| 2026-05-06 14:01 | 29.98338 | 121.05240 | 16075 ft | 453 kts | 26° |
| 2026-05-06 14:01 | 30.01113 | 121.06953 | 15846 ft | 451 kts | 26° |
| 2026-05-06 14:01 | 30.03875 | 121.08656 | 15608 ft | 449 kts | 26° |
| 2026-05-06 14:02 | 30.07553 | 121.10930 | 15285 ft | 447 kts | 26° |
| 2026-05-06 14:02 | 30.09365 | 121.12054 | 15129 ft | 446 kts | 27° |
| 2026-05-06 14:02 | 30.12978 | 121.14295 | 14818 ft | 444 kts | 27° |
| 2026-05-06 14:02 | 30.14810 | 121.15431 | 14662 ft | 442 kts | 27° |
| 2026-05-06 14:03 | 30.17519 | 121.17111 | 14428 ft | 441 kts | 27° |
| 2026-05-06 14:03 | 30.20214 | 121.18786 | 14208 ft | 439 kts | 27° |
| 2026-05-06 14:03 | 30.22895 | 121.20450 | 13982 ft | 436 kts | 26° |
| 2026-05-06 14:03 | 30.25638 | 121.21790 | 13755 ft | 432 kts | 16° |
| 2026-05-06 14:04 | 30.28555 | 121.22544 | 13503 ft | 428 kts | 5° |
| 2026-05-06 14:04 | 30.31510 | 121.22911 | 13250 ft | 426 kts | 4° |
| 2026-05-06 14:04 | 30.34453 | 121.23280 | 12996 ft | 425 kts | 4° |
| 2026-05-06 14:04 | 30.37383 | 121.23655 | 12781 ft | 423 kts | 5° |
| 2026-05-06 14:05 | 30.40303 | 121.24036 | 12770 ft | 422 kts | 5° |
| 2026-05-06 14:05 | 30.43227 | 121.24422 | 12775 ft | 423 kts | 2° |
| 2026-05-06 14:05 | 30.46155 | 121.24804 | 12773 ft | 423 kts | 4° |
| 2026-05-06 14:05 | 30.49082 | 121.25188 | 12777 ft | 424 kts | 4° |
| 2026-05-06 14:06 | 30.52009 | 121.25586 | 12555 ft | 422 kts | 5° |
| 2026-05-06 14:06 | 30.54902 | 121.25994 | 12303 ft | 413 kts | 5° |
| 2026-05-06 14:06 | 30.57704 | 121.26402 | 12025 ft | 400 kts | 5° |
| 2026-05-06 14:06 | 30.60427 | 121.26799 | 11707 ft | 389 kts | 5° |
| 2026-05-06 14:07 | 30.63081 | 121.27182 | 11387 ft | 380 kts | 4° |
| 2026-05-06 14:07 | 30.65693 | 121.27555 | 11092 ft | 377 kts | 5° |
| 2026-05-06 14:07 | 30.68285 | 121.27919 | 10786 ft | 374 kts | 5° |
| 2026-05-06 14:07 | 30.70865 | 121.28280 | 10480 ft | 372 kts | 5° |
| 2026-05-06 14:08 | 30.73432 | 121.28636 | 10179 ft | 370 kts | 5° |
| 2026-05-06 14:08 | 30.75983 | 121.28991 | 9883 ft | 369 kts | 4° |
| 2026-05-06 14:08 | 30.78517 | 121.29343 | 9554 ft | 363 kts | 5° |
| 2026-05-06 14:08 | 30.80996 | 121.29690 | 9225 ft | 355 kts | 5° |
| 2026-05-06 14:09 | 30.83422 | 121.30030 | 8904 ft | 347 kts | 5° |
| 2026-05-06 14:09 | 30.85791 | 121.30363 | 8581 ft | 340 kts | 5° |
| 2026-05-06 14:09 | 30.88113 | 121.30691 | 8261 ft | 333 kts | 5° |
| 2026-05-06 14:09 | 30.90390 | 121.31012 | 7944 ft | 326 kts | 5° |
| 2026-05-06 14:10 | 30.92623 | 121.31326 | 7630 ft | 320 kts | 5° |
| 2026-05-06 14:10 | 30.94810 | 121.31636 | 7341 ft | 314 kts | 5° |
| 2026-05-06 14:10 | 30.96961 | 121.31946 | 7061 ft | 308 kts | 5° |
| 2026-05-06 14:10 | 30.99068 | 121.32251 | 6781 ft | 302 kts | 6° |
| 2026-05-06 14:11 | 31.01137 | 121.32552 | 6503 ft | 297 kts | 5° |
| 2026-05-06 14:11 | 31.03166 | 121.32846 | 6193 ft | 291 kts | 6° |
| 2026-05-06 14:11 | 31.05161 | 121.33134 | 5890 ft | 286 kts | 5° |
| 2026-05-06 14:11 | 31.07116 | 121.33416 | 5595 ft | 281 kts | 5° |
| 2026-05-06 14:12 | 31.09044 | 121.33690 | 5294 ft | 278 kts | 4° |
| 2026-05-06 14:12 | 31.10955 | 121.33613 | 5014 ft | 273 kts | 346° |
| 2026-05-06 14:12 | 31.12698 | 121.32870 | 4867 ft | 269 kts | 328° |
| 2026-05-06 14:12 | 31.14159 | 121.31539 | 4872 ft | 267 kts | 310° |
| 2026-05-06 14:13 | 31.15330 | 121.29893 | 4874 ft | 267 kts | 307° |
| 2026-05-06 14:13 | 31.16506 | 121.28213 | 4875 ft | 267 kts | 307° |
| 2026-05-06 14:13 | 31.17669 | 121.26556 | 4875 ft | 267 kts | 307° |
| 2026-05-06 14:13 | 31.18850 | 121.24887 | 4870 ft | 264 kts | 310° |
| 2026-05-06 14:14 | 31.20241 | 121.23533 | 4860 ft | 261 kts | 327° |
| 2026-05-06 14:14 | 31.21927 | 121.22730 | 4552 ft | 263 kts | 346° |
| 2026-05-06 14:14 | 31.23747 | 121.22530 | 4262 ft | 264 kts | 356° |
| 2026-05-06 14:14 | 31.25583 | 121.22443 | 3965 ft | 264 kts | 355° |
| 2026-05-06 14:15 | 31.27416 | 121.22347 | 3671 ft | 264 kts | 355° |
| 2026-05-06 14:15 | 31.29247 | 121.22247 | 3382 ft | 263 kts | 355° |
| 2026-05-06 14:15 | 31.31071 | 121.22144 | 3088 ft | 262 kts | 355° |
| 2026-05-06 14:15 | 31.32884 | 121.22042 | 2790 ft | 260 kts | 356° |
| 2026-05-06 14:16 | 31.34685 | 121.22029 | 2494 ft | 258 kts | 11° |
| 2026-05-06 14:16 | 31.36240 | 121.22915 | 2363 ft | 244 kts | 46° |
| 2026-05-06 14:16 | 31.37074 | 121.24508 | 2279 ft | 221 kts | 79° |
| 2026-05-06 14:16 | 31.37114 | 121.26192 | 2276 ft | 198 kts | 107° |
| 2026-05-06 14:17 | 31.36741 | 121.27687 | 2296 ft | 187 kts | 110° |
| 2026-05-06 14:17 | 31.36375 | 121.29140 | 2291 ft | 186 kts | 110° |
| 2026-05-06 14:17 | 31.35974 | 121.30572 | 2288 ft | 184 kts | 118° |
| 2026-05-06 14:17 | 31.35253 | 121.31768 | 2287 ft | 180 kts | 138° |
| 2026-05-06 14:18 | 31.34235 | 121.32579 | 2291 ft | 176 kts | 158° |
| 2026-05-06 14:18 | 31.33051 | 121.32911 | 2211 ft | 175 kts | 177° |
| 2026-05-06 14:18 | 31.31869 | 121.32975 | 2032 ft | 165 kts | 177° |
| 2026-05-06 14:18 | 31.30799 | 121.33032 | 1844 ft | 144 kts | 176° |
| 2026-05-06 14:19 | 31.29836 | 121.33084 | 1671 ft | 135 kts | 176° |
| 2026-05-06 14:19 | 31.28903 | 121.33135 | 1487 ft | 134 kts | 176° |
| 2026-05-06 14:19 | 31.27978 | 121.33185 | 1317 ft | 132 kts | 175° |
| 2026-05-06 14:19 | 31.27060 | 121.33234 | 1135 ft | 133 kts | 175° |
| 2026-05-06 14:20 | 31.26133 | 121.33285 | 967 ft | 134 kts | 174° |
| 2026-05-06 14:20 | 31.25198 | 121.33337 | 791 ft | 135 kts | 175° |
| 2026-05-06 14:20 | 31.24264 | 121.33376 | 646 ft | 134 kts | 175° |
| 2026-05-06 14:20 | 31.23288 | 121.33443 | 464 ft | 140 kts | 175° |
| 2026-05-06 14:21 | 31.22318 | 121.33505 | 273 ft | 141 kts | 176° |
| 2026-05-06 14:21 | 31.21346 | 121.33547 | 70 ft | 139 kts | 175° |
| 2026-05-06 14:21 | 31.20448 | 121.33594 | 19 ft | 102 kts | 177° |
| 2026-05-06 14:21 | 31.19992 | 121.33619 | 19 ft | 43 kts | 178° |
| 2026-05-06 14:22 | 31.19719 | 121.33634 | 20 ft | 31 kts | 177° |
| 2026-05-06 14:22 | 31.19511 | 121.33640 | 21 ft | 28 kts | 182° |
| 2026-05-06 14:22 | 31.19326 | 121.33586 | 19 ft | 27 kts | 204° |
| 2026-05-06 14:22 | 31.19192 | 121.33512 | 19 ft | 21 kts | 205° |
| 2026-05-06 14:23 | 31.19050 | 121.33479 | 19 ft | 23 kts | 176° |
| 2026-05-06 14:23 | 31.18890 | 121.33487 | 20 ft | 23 kts | 177° |
| 2026-05-06 14:23 | 31.18739 | 121.33495 | 19 ft | 21 kts | 177° |
| 2026-05-06 14:23 | 31.18589 | 121.33504 | 19 ft | 23 kts | 177° |
| 2026-05-06 14:24 | 31.18434 | 121.33513 | 19 ft | 22 kts | 177° |
| 2026-05-06 14:24 | 31.18283 | 121.33521 | 19 ft | 21 kts | 177° |
| 2026-05-06 14:24 | 31.18134 | 121.33529 | 19 ft | 21 kts | 177° |
| 2026-05-06 14:24 | 31.17987 | 121.33537 | 19 ft | 22 kts | 178° |
| 2026-05-06 14:25 | 31.17820 | 121.33542 | 19 ft | 24 kts | 187° |
| 2026-05-06 14:25 | 31.17762 | 121.33394 | 19 ft | 22 kts | 267° |
| 2026-05-06 14:25 | 31.17758 | 121.33222 | 19 ft | 21 kts | 278° |
| 2026-05-06 14:25 | 31.17853 | 121.33118 | 19 ft | 19 kts | 326° |
| 2026-05-06 14:26 | 31.17960 | 121.33046 | 19 ft | 17 kts | 351° |
| 2026-05-06 14:26 | 31.18076 | 121.33050 | 19 ft | 16 kts | 1° |
| 2026-05-06 14:26 | 31.18184 | 121.33053 | 19 ft | 15 kts | 1° |
| 2026-05-06 14:26 | 31.18284 | 121.33053 | 19 ft | 14 kts | 358° |
| 2026-05-06 14:27 | 31.18375 | 121.33051 | 19 ft | 12 kts | 357° |
| 2026-05-06 14:27 | 31.18477 | 121.33045 | 19 ft | 18 kts | 357° |
| 2026-05-06 14:27 | 31.18613 | 121.33038 | 19 ft | 19 kts | 357° |
| 2026-05-06 14:27 | 31.18743 | 121.33030 | 19 ft | 18 kts | 357° |
| 2026-05-06 14:28 | 31.18865 | 121.33023 | 19 ft | 17 kts | 357° |
| 2026-05-06 14:28 | 31.18983 | 121.33017 | 19 ft | 16 kts | 357° |
| 2026-05-06 14:28 | 31.19094 | 121.33012 | 19 ft | 15 kts | 358° |
| 2026-05-06 14:28 | 31.19194 | 121.33005 | 19 ft | 14 kts | 356° |
| 2026-05-06 14:29 | 31.19287 | 121.33000 | 19 ft | 13 kts | 358° |
| 2026-05-06 14:29 | 31.19372 | 121.32996 | 19 ft | 12 kts | 358° |
| 2026-05-06 14:29 | 31.19428 | 121.32958 | 19 ft | 9 kts | 281° |
| 2026-05-06 14:29 | 31.19424 | 121.32890 | 19 ft | 7 kts | 267° |
| 2026-05-06 14:30 | 31.19424 | 121.32874 | 19 ft | 0 kts | 267° |
| 2026-05-06 14:55 | 31.19424 | 121.32875 | 19 ft | 0 kts | 267° |